sensor_id;sensor_type;location;lat;lon;timestamp;P1;durP1;ratioP1;P2;durP2;ratioP2
41629;SDS011;27322;49.488;8.480;2023-12-20T00:01:45;6.43;;;3.72;;
41629;SDS011;27322;49.488;8.480;2023-12-20T00:04:10;6.93;;;3.70;;
41629;SDS011;27322;49.488;8.480;2023-12-20T00:06:36;7.15;;;3.53;;
41629;SDS011;27322;49.488;8.480;2023-12-20T00:09:02;7.32;;;3.33;;
41629;SDS011;27322;49.488;8.480;2023-12-20T00:11:27;7.03;;;3.33;;
41629;SDS011;27322;49.488;8.480;2023-12-20T00:13:53;7.25;;;3.05;;
41629;SDS011;27322;49.488;8.480;2023-12-20T00:16:18;7.07;;;3.22;;
41629;SDS011;27322;49.488;8.480;2023-12-20T00:18:44;5.95;;;2.88;;
41629;SDS011;27322;49.488;8.480;2023-12-20T00:21:10;5.35;;;2.63;;
41629;SDS011;27322;49.488;8.480;2023-12-20T00:23:35;7.78;;;3.03;;
41629;SDS011;27322;49.488;8.480;2023-12-20T00:26:01;6.13;;;2.67;;
41629;SDS011;27322;49.488;8.480;2023-12-20T00:28:26;5.00;;;2.47;;
41629;SDS011;27322;49.488;8.480;2023-12-20T00:30:52;5.68;;;2.65;;
41629;SDS011;27322;49.488;8.480;2023-12-20T00:33:20;7.15;;;2.80;;
41629;SDS011;27322;49.488;8.480;2023-12-20T00:35:45;6.80;;;2.63;;
41629;SDS011;27322;49.488;8.480;2023-12-20T00:38:11;5.03;;;2.22;;
41629;SDS011;27322;49.488;8.480;2023-12-20T00:40:36;4.65;;;2.35;;
41629;SDS011;27322;49.488;8.480;2023-12-20T00:43:02;5.55;;;2.58;;
41629;SDS011;27322;49.488;8.480;2023-12-20T00:45:28;5.07;;;2.33;;
41629;SDS011;27322;49.488;8.480;2023-12-20T00:47:54;4.43;;;2.20;;
41629;SDS011;27322;49.488;8.480;2023-12-20T00:50:19;5.82;;;2.22;;
41629;SDS011;27322;49.488;8.480;2023-12-20T00:52:46;5.50;;;2.40;;
41629;SDS011;27322;49.488;8.480;2023-12-20T00:55:12;4.65;;;2.33;;
41629;SDS011;27322;49.488;8.480;2023-12-20T00:57:38;6.63;;;2.17;;
41629;SDS011;27322;49.488;8.480;2023-12-20T01:00:04;4.15;;;2.00;;
41629;SDS011;27322;49.488;8.480;2023-12-20T01:02:30;4.65;;;2.05;;
41629;SDS011;27322;49.488;8.480;2023-12-20T01:04:56;4.78;;;2.05;;
41629;SDS011;27322;49.488;8.480;2023-12-20T01:07:21;4.75;;;1.90;;
41629;SDS011;27322;49.488;8.480;2023-12-20T01:09:47;4.65;;;1.70;;
41629;SDS011;27322;49.488;8.480;2023-12-20T01:12:13;3.75;;;1.75;;
41629;SDS011;27322;49.488;8.480;2023-12-20T01:14:38;4.43;;;1.88;;
41629;SDS011;27322;49.488;8.480;2023-12-20T01:17:04;4.20;;;2.10;;
41629;SDS011;27322;49.488;8.480;2023-12-20T01:19:30;3.58;;;1.75;;
41629;SDS011;27322;49.488;8.480;2023-12-20T01:21:56;4.88;;;1.98;;
41629;SDS011;27322;49.488;8.480;2023-12-20T01:24:21;4.40;;;1.80;;
41629;SDS011;27322;49.488;8.480;2023-12-20T01:26:47;4.15;;;1.70;;
41629;SDS011;27322;49.488;8.480;2023-12-20T01:29:13;4.35;;;1.63;;
41629;SDS011;27322;49.488;8.480;2023-12-20T01:31:39;4.95;;;1.80;;
41629;SDS011;27322;49.488;8.480;2023-12-20T01:34:05;4.47;;;1.65;;
41629;SDS011;27322;49.488;8.480;2023-12-20T01:36:31;5.00;;;1.92;;
41629;SDS011;27322;49.488;8.480;2023-12-20T01:38:56;3.80;;;1.70;;
41629;SDS011;27322;49.488;8.480;2023-12-20T01:41:25;4.07;;;1.83;;
41629;SDS011;27322;49.488;8.480;2023-12-20T01:43:50;3.20;;;1.40;;
41629;SDS011;27322;49.488;8.480;2023-12-20T01:46:18;3.92;;;1.60;;
41629;SDS011;27322;49.488;8.480;2023-12-20T01:48:44;3.05;;;1.40;;
41629;SDS011;27322;49.488;8.480;2023-12-20T01:51:10;3.28;;;1.40;;
41629;SDS011;27322;49.488;8.480;2023-12-20T01:53:36;2.95;;;1.45;;
41629;SDS011;27322;49.488;8.480;2023-12-20T01:56:02;2.90;;;1.40;;
41629;SDS011;27322;49.488;8.480;2023-12-20T01:58:29;3.47;;;1.45;;
41629;SDS011;27322;49.488;8.480;2023-12-20T02:00:54;4.07;;;1.60;;
41629;SDS011;27322;49.488;8.480;2023-12-20T02:03:21;3.38;;;1.55;;
41629;SDS011;27322;49.488;8.480;2023-12-20T02:05:46;3.47;;;1.30;;
41629;SDS011;27322;49.488;8.480;2023-12-20T02:08:13;4.72;;;1.60;;
41629;SDS011;27322;49.488;8.480;2023-12-20T02:10:38;2.72;;;1.33;;
41629;SDS011;27322;49.488;8.480;2023-12-20T02:13:05;5.47;;;1.88;;
41629;SDS011;27322;49.488;8.480;2023-12-20T02:15:31;4.20;;;1.75;;
41629;SDS011;27322;49.488;8.480;2023-12-20T02:17:57;4.38;;;2.00;;
41629;SDS011;27322;49.488;8.480;2023-12-20T02:20:22;5.20;;;2.20;;
41629;SDS011;27322;49.488;8.480;2023-12-20T02:22:48;5.70;;;3.17;;
41629;SDS011;27322;49.488;8.480;2023-12-20T02:25:13;7.43;;;2.78;;
41629;SDS011;27322;49.488;8.480;2023-12-20T02:27:39;6.55;;;3.20;;
41629;SDS011;27322;49.488;8.480;2023-12-20T02:30:05;5.22;;;2.95;;
41629;SDS011;27322;49.488;8.480;2023-12-20T02:32:31;6.05;;;3.30;;
41629;SDS011;27322;49.488;8.480;2023-12-20T02:35:02;8.20;;;3.85;;
41629;SDS011;27322;49.488;8.480;2023-12-20T02:37:28;6.63;;;3.55;;
41629;SDS011;27322;49.488;8.480;2023-12-20T02:39:53;6.07;;;3.13;;
41629;SDS011;27322;49.488;8.480;2023-12-20T02:42:19;5.88;;;2.80;;
41629;SDS011;27322;49.488;8.480;2023-12-20T02:44:45;6.93;;;2.88;;
41629;SDS011;27322;49.488;8.480;2023-12-20T02:47:10;7.63;;;2.78;;
41629;SDS011;27322;49.488;8.480;2023-12-20T02:49:36;4.50;;;2.30;;
41629;SDS011;27322;49.488;8.480;2023-12-20T02:52:01;5.05;;;2.22;;
41629;SDS011;27322;49.488;8.480;2023-12-20T02:54:30;5.28;;;2.50;;
41629;SDS011;27322;49.488;8.480;2023-12-20T02:56:55;5.35;;;2.30;;
41629;SDS011;27322;49.488;8.480;2023-12-20T02:59:21;3.92;;;2.05;;
41629;SDS011;27322;49.488;8.480;2023-12-20T03:01:46;5.20;;;2.00;;
41629;SDS011;27322;49.488;8.480;2023-12-20T03:04:12;3.90;;;2.10;;
41629;SDS011;27322;49.488;8.480;2023-12-20T03:06:38;3.70;;;1.90;;
41629;SDS011;27322;49.488;8.480;2023-12-20T03:09:03;3.42;;;1.70;;
41629;SDS011;27322;49.488;8.480;2023-12-20T03:11:29;2.92;;;1.15;;
41629;SDS011;27322;49.488;8.480;2023-12-20T03:13:55;2.45;;;1.00;;
41629;SDS011;27322;49.488;8.480;2023-12-20T03:16:21;2.17;;;0.80;;
41629;SDS011;27322;49.488;8.480;2023-12-20T03:18:47;3.85;;;0.98;;
41629;SDS011;27322;49.488;8.480;2023-12-20T03:21:12;2.28;;;0.90;;
41629;SDS011;27322;49.488;8.480;2023-12-20T03:23:38;2.22;;;0.85;;
41629;SDS011;27322;49.488;8.480;2023-12-20T03:26:06;2.75;;;1.10;;
41629;SDS011;27322;49.488;8.480;2023-12-20T03:28:33;2.47;;;1.13;;
41629;SDS011;27322;49.488;8.480;2023-12-20T03:30:58;3.97;;;1.30;;
41629;SDS011;27322;49.488;8.480;2023-12-20T03:33:24;2.80;;;1.10;;
41629;SDS011;27322;49.488;8.480;2023-12-20T03:35:49;3.35;;;1.33;;
41629;SDS011;27322;49.488;8.480;2023-12-20T03:38:15;2.85;;;1.25;;
41629;SDS011;27322;49.488;8.480;2023-12-20T03:40:41;3.03;;;1.30;;
41629;SDS011;27322;49.488;8.480;2023-12-20T03:43:06;3.70;;;1.40;;
41629;SDS011;27322;49.488;8.480;2023-12-20T03:45:32;2.63;;;1.15;;
41629;SDS011;27322;49.488;8.480;2023-12-20T03:47:58;3.95;;;1.42;;
41629;SDS011;27322;49.488;8.480;2023-12-20T03:50:24;3.60;;;1.63;;
41629;SDS011;27322;49.488;8.480;2023-12-20T03:52:50;3.63;;;1.30;;
41629;SDS011;27322;49.488;8.480;2023-12-20T03:55:15;4.82;;;1.40;;
41629;SDS011;27322;49.488;8.480;2023-12-20T03:57:41;3.45;;;1.45;;
41629;SDS011;27322;49.488;8.480;2023-12-20T04:00:07;3.33;;;1.55;;
41629;SDS011;27322;49.488;8.480;2023-12-20T04:02:35;3.08;;;1.52;;
41629;SDS011;27322;49.488;8.480;2023-12-20T04:05:01;3.80;;;1.70;;
41629;SDS011;27322;49.488;8.480;2023-12-20T04:07:27;2.65;;;1.23;;
41629;SDS011;27322;49.488;8.480;2023-12-20T04:09:52;3.20;;;1.48;;
41629;SDS011;27322;49.488;8.480;2023-12-20T04:12:18;2.97;;;1.40;;
41629;SDS011;27322;49.488;8.480;2023-12-20T04:14:43;3.03;;;1.30;;
41629;SDS011;27322;49.488;8.480;2023-12-20T04:17:09;5.40;;;1.33;;
41629;SDS011;27322;49.488;8.480;2023-12-20T04:19:35;2.47;;;1.00;;
41629;SDS011;27322;49.488;8.480;2023-12-20T04:22:00;2.90;;;1.35;;
41629;SDS011;27322;49.488;8.480;2023-12-20T04:24:26;2.90;;;1.10;;
41629;SDS011;27322;49.488;8.480;2023-12-20T04:26:51;3.42;;;1.35;;
41629;SDS011;27322;49.488;8.480;2023-12-20T04:29:17;2.97;;;1.20;;
41629;SDS011;27322;49.488;8.480;2023-12-20T04:31:42;3.88;;;1.10;;
41629;SDS011;27322;49.488;8.480;2023-12-20T04:34:08;3.45;;;1.30;;
41629;SDS011;27322;49.488;8.480;2023-12-20T04:36:34;2.97;;;1.30;;
41629;SDS011;27322;49.488;8.480;2023-12-20T04:38:59;6.38;;;1.48;;
41629;SDS011;27322;49.488;8.480;2023-12-20T04:41:25;2.88;;;1.45;;
41629;SDS011;27322;49.488;8.480;2023-12-20T04:43:52;3.55;;;1.30;;
41629;SDS011;27322;49.488;8.480;2023-12-20T04:46:18;3.60;;;1.58;;
41629;SDS011;27322;49.488;8.480;2023-12-20T04:48:43;3.47;;;1.65;;
41629;SDS011;27322;49.488;8.480;2023-12-20T04:51:09;2.90;;;1.23;;
41629;SDS011;27322;49.488;8.480;2023-12-20T04:53:34;2.50;;;1.20;;
41629;SDS011;27322;49.488;8.480;2023-12-20T04:56:00;4.70;;;1.60;;
41629;SDS011;27322;49.488;8.480;2023-12-20T04:58:26;3.90;;;1.48;;
41629;SDS011;27322;49.488;8.480;2023-12-20T05:00:51;3.42;;;1.58;;
41629;SDS011;27322;49.488;8.480;2023-12-20T05:03:17;3.25;;;1.50;;
41629;SDS011;27322;49.488;8.480;2023-12-20T05:05:42;4.93;;;2.10;;
41629;SDS011;27322;49.488;8.480;2023-12-20T05:08:08;4.90;;;2.50;;
41629;SDS011;27322;49.488;8.480;2023-12-20T05:10:34;5.85;;;2.50;;
41629;SDS011;27322;49.488;8.480;2023-12-20T05:13:00;5.60;;;2.67;;
41629;SDS011;27322;49.488;8.480;2023-12-20T05:15:25;5.20;;;2.47;;
41629;SDS011;27322;49.488;8.480;2023-12-20T05:17:51;4.53;;;2.50;;
41629;SDS011;27322;49.488;8.480;2023-12-20T05:20:17;5.55;;;2.95;;
41629;SDS011;27322;49.488;8.480;2023-12-20T05:22:42;4.78;;;2.70;;
41629;SDS011;27322;49.488;8.480;2023-12-20T05:25:08;5.05;;;2.55;;
41629;SDS011;27322;49.488;8.480;2023-12-20T05:27:33;4.15;;;2.10;;
41629;SDS011;27322;49.488;8.480;2023-12-20T05:29:59;4.07;;;1.90;;
41629;SDS011;27322;49.488;8.480;2023-12-20T05:32:25;3.65;;;1.83;;
41629;SDS011;27322;49.488;8.480;2023-12-20T05:34:50;3.08;;;1.33;;
41629;SDS011;27322;49.488;8.480;2023-12-20T05:37:16;4.13;;;1.80;;
41629;SDS011;27322;49.488;8.480;2023-12-20T05:39:41;4.53;;;1.65;;
41629;SDS011;27322;49.488;8.480;2023-12-20T05:42:07;2.63;;;1.30;;
41629;SDS011;27322;49.488;8.480;2023-12-20T05:44:32;3.38;;;1.85;;
41629;SDS011;27322;49.488;8.480;2023-12-20T05:46:58;4.30;;;1.98;;
41629;SDS011;27322;49.488;8.480;2023-12-20T05:49:24;3.67;;;1.63;;
41629;SDS011;27322;49.488;8.480;2023-12-20T05:51:49;3.33;;;1.58;;
41629;SDS011;27322;49.488;8.480;2023-12-20T05:54:16;3.35;;;1.60;;
41629;SDS011;27322;49.488;8.480;2023-12-20T05:56:41;3.35;;;1.60;;
41629;SDS011;27322;49.488;8.480;2023-12-20T05:59:07;3.42;;;1.88;;
41629;SDS011;27322;49.488;8.480;2023-12-20T06:01:35;4.43;;;2.20;;
41629;SDS011;27322;49.488;8.480;2023-12-20T06:04:01;4.10;;;2.03;;
41629;SDS011;27322;49.488;8.480;2023-12-20T06:06:28;3.72;;;1.95;;
41629;SDS011;27322;49.488;8.480;2023-12-20T06:08:53;4.80;;;2.42;;
41629;SDS011;27322;49.488;8.480;2023-12-20T06:11:19;4.70;;;2.30;;
41629;SDS011;27322;49.488;8.480;2023-12-20T06:13:44;5.15;;;2.55;;
41629;SDS011;27322;49.488;8.480;2023-12-20T06:16:10;5.20;;;2.50;;
41629;SDS011;27322;49.488;8.480;2023-12-20T06:18:37;5.05;;;2.35;;
41629;SDS011;27322;49.488;8.480;2023-12-20T06:21:02;4.10;;;1.98;;
41629;SDS011;27322;49.488;8.480;2023-12-20T06:23:28;5.80;;;2.42;;
41629;SDS011;27322;49.488;8.480;2023-12-20T06:25:54;5.40;;;2.22;;
41629;SDS011;27322;49.488;8.480;2023-12-20T06:28:20;4.50;;;2.15;;
41629;SDS011;27322;49.488;8.480;2023-12-20T06:30:45;4.80;;;2.25;;
41629;SDS011;27322;49.488;8.480;2023-12-20T06:33:14;5.90;;;2.58;;
41629;SDS011;27322;49.488;8.480;2023-12-20T06:35:39;4.95;;;2.42;;
41629;SDS011;27322;49.488;8.480;2023-12-20T06:38:08;4.65;;;2.30;;
41629;SDS011;27322;49.488;8.480;2023-12-20T06:40:34;5.63;;;2.35;;
41629;SDS011;27322;49.488;8.480;2023-12-20T06:42:59;4.38;;;2.20;;
41629;SDS011;27322;49.488;8.480;2023-12-20T06:45:25;5.55;;;2.28;;
41629;SDS011;27322;49.488;8.480;2023-12-20T06:47:51;4.53;;;2.28;;
41629;SDS011;27322;49.488;8.480;2023-12-20T06:50:16;4.57;;;2.25;;
41629;SDS011;27322;49.488;8.480;2023-12-20T06:52:42;4.13;;;2.00;;
41629;SDS011;27322;49.488;8.480;2023-12-20T06:55:07;5.53;;;2.45;;
41629;SDS011;27322;49.488;8.480;2023-12-20T06:57:33;6.43;;;2.70;;
41629;SDS011;27322;49.488;8.480;2023-12-20T07:00:00;4.97;;;2.80;;
41629;SDS011;27322;49.488;8.480;2023-12-20T07:02:25;4.18;;;2.20;;
41629;SDS011;27322;49.488;8.480;2023-12-20T07:04:54;5.78;;;2.25;;
41629;SDS011;27322;49.488;8.480;2023-12-20T07:07:19;4.90;;;2.28;;
41629;SDS011;27322;49.488;8.480;2023-12-20T07:09:45;4.82;;;2.28;;
41629;SDS011;27322;49.488;8.480;2023-12-20T07:12:11;4.43;;;2.17;;
41629;SDS011;27322;49.488;8.480;2023-12-20T07:14:36;6.13;;;2.30;;
41629;SDS011;27322;49.488;8.480;2023-12-20T07:17:02;4.35;;;1.90;;
41629;SDS011;27322;49.488;8.480;2023-12-20T07:19:28;5.32;;;1.92;;
41629;SDS011;27322;49.488;8.480;2023-12-20T07:21:53;4.70;;;1.60;;
41629;SDS011;27322;49.488;8.480;2023-12-20T07:24:19;4.25;;;1.80;;
41629;SDS011;27322;49.488;8.480;2023-12-20T07:26:45;4.13;;;1.83;;
41629;SDS011;27322;49.488;8.480;2023-12-20T07:29:10;4.35;;;2.00;;
41629;SDS011;27322;49.488;8.480;2023-12-20T07:31:36;5.18;;;1.88;;
41629;SDS011;27322;49.488;8.480;2023-12-20T07:34:01;6.85;;;2.03;;
41629;SDS011;27322;49.488;8.480;2023-12-20T07:36:27;4.50;;;2.00;;
41629;SDS011;27322;49.488;8.480;2023-12-20T07:38:58;4.70;;;1.70;;
41629;SDS011;27322;49.488;8.480;2023-12-20T07:41:28;4.82;;;1.90;;
41629;SDS011;27322;49.488;8.480;2023-12-20T07:43:56;8.05;;;2.30;;
41629;SDS011;27322;49.488;8.480;2023-12-20T07:46:25;4.38;;;1.85;;
41629;SDS011;27322;49.488;8.480;2023-12-20T07:48:54;4.43;;;1.90;;
41629;SDS011;27322;49.488;8.480;2023-12-20T07:51:33;4.50;;;1.85;;
41629;SDS011;27322;49.488;8.480;2023-12-20T07:54:12;5.20;;;1.95;;
41629;SDS011;27322;49.488;8.480;2023-12-20T07:56:57;5.50;;;2.10;;
41629;SDS011;27322;49.488;8.480;2023-12-20T07:59:28;3.63;;;1.70;;
41629;SDS011;27322;49.488;8.480;2023-12-20T08:02:14;3.35;;;1.70;;
41629;SDS011;27322;49.488;8.480;2023-12-20T08:04:44;3.47;;;1.67;;
41629;SDS011;27322;49.488;8.480;2023-12-20T08:07:13;4.07;;;1.90;;
41629;SDS011;27322;49.488;8.480;2023-12-20T08:09:51;4.82;;;1.85;;
41629;SDS011;27322;49.488;8.480;2023-12-20T08:12:30;5.32;;;1.58;;
41629;SDS011;27322;49.488;8.480;2023-12-20T08:15:00;5.40;;;2.13;;
41629;SDS011;27322;49.488;8.480;2023-12-20T08:17:29;5.32;;;1.85;;
41629;SDS011;27322;49.488;8.480;2023-12-20T08:20:18;4.80;;;1.92;;
41629;SDS011;27322;49.488;8.480;2023-12-20T08:22:55;5.90;;;1.80;;
41629;SDS011;27322;49.488;8.480;2023-12-20T08:25:24;4.03;;;1.60;;
41629;SDS011;27322;49.488;8.480;2023-12-20T08:28:03;4.32;;;1.70;;
41629;SDS011;27322;49.488;8.480;2023-12-20T08:30:29;3.47;;;1.55;;
41629;SDS011;27322;49.488;8.480;2023-12-20T08:32:56;4.22;;;1.52;;
41629;SDS011;27322;49.488;8.480;2023-12-20T08:35:21;3.88;;;1.85;;
41629;SDS011;27322;49.488;8.480;2023-12-20T08:37:47;3.58;;;1.60;;
41629;SDS011;27322;49.488;8.480;2023-12-20T08:40:13;5.10;;;1.85;;
41629;SDS011;27322;49.488;8.480;2023-12-20T08:42:40;5.43;;;1.65;;
41629;SDS011;27322;49.488;8.480;2023-12-20T08:45:09;4.53;;;1.52;;
41629;SDS011;27322;49.488;8.480;2023-12-20T08:47:37;7.68;;;1.77;;
41629;SDS011;27322;49.488;8.480;2023-12-20T08:50:06;3.65;;;1.60;;
41629;SDS011;27322;49.488;8.480;2023-12-20T08:52:47;6.75;;;1.75;;
41629;SDS011;27322;49.488;8.480;2023-12-20T08:55:20;5.82;;;1.77;;
41629;SDS011;27322;49.488;8.480;2023-12-20T08:57:58;5.47;;;1.55;;
41629;SDS011;27322;49.488;8.480;2023-12-20T09:00:28;4.07;;;1.40;;
41629;SDS011;27322;49.488;8.480;2023-12-20T09:02:54;10.93;;;1.85;;
41629;SDS011;27322;49.488;8.480;2023-12-20T09:05:24;6.25;;;1.70;;
41629;SDS011;27322;49.488;8.480;2023-12-20T09:08:03;4.35;;;1.55;;
41629;SDS011;27322;49.488;8.480;2023-12-20T09:10:51;4.95;;;1.42;;
41629;SDS011;27322;49.488;8.480;2023-12-20T09:13:34;5.32;;;1.48;;
41629;SDS011;27322;49.488;8.480;2023-12-20T09:16:24;6.07;;;1.30;;
41629;SDS011;27322;49.488;8.480;2023-12-20T09:19:10;10.75;;;1.40;;
41629;SDS011;27322;49.488;8.480;2023-12-20T09:40:41;3.55;;;1.40;;
41629;SDS011;27322;49.488;8.480;2023-12-20T10:10:10;3.47;;;1.33;;
41629;SDS011;27322;49.488;8.480;2023-12-20T10:16:11;5.18;;;1.65;;
41629;SDS011;27322;49.488;8.480;2023-12-20T10:22:28;3.70;;;1.20;;
41629;SDS011;27322;49.488;8.480;2023-12-20T10:24:53;4.13;;;1.20;;
41629;SDS011;27322;49.488;8.480;2023-12-20T10:34:25;4.07;;;1.00;;
41629;SDS011;27322;49.488;8.480;2023-12-20T10:41:16;5.30;;;1.55;;
41629;SDS011;27322;49.488;8.480;2023-12-20T11:12:46;6.70;;;1.40;;
41629;SDS011;27322;49.488;8.480;2023-12-20T11:41:09;6.03;;;1.80;;
41629;SDS011;27322;49.488;8.480;2023-12-20T11:43:39;5.07;;;1.90;;
41629;SDS011;27322;49.488;8.480;2023-12-20T11:46:12;5.38;;;1.48;;
41629;SDS011;27322;49.488;8.480;2023-12-20T11:48:40;4.90;;;1.65;;
41629;SDS011;27322;49.488;8.480;2023-12-20T11:51:25;6.72;;;1.63;;
41629;SDS011;27322;49.488;8.480;2023-12-20T11:54:25;3.40;;;1.50;;
41629;SDS011;27322;49.488;8.480;2023-12-20T11:57:08;5.18;;;1.60;;
41629;SDS011;27322;49.488;8.480;2023-12-20T11:59:34;8.18;;;1.63;;
41629;SDS011;27322;49.488;8.480;2023-12-20T12:02:01;4.38;;;1.63;;
41629;SDS011;27322;49.488;8.480;2023-12-20T12:04:28;5.07;;;1.63;;
41629;SDS011;27322;49.488;8.480;2023-12-20T12:06:53;6.10;;;1.48;;
41629;SDS011;27322;49.488;8.480;2023-12-20T12:09:19;4.15;;;1.63;;
41629;SDS011;27322;49.488;8.480;2023-12-20T12:11:45;6.13;;;1.90;;
41629;SDS011;27322;49.488;8.480;2023-12-20T12:14:10;5.07;;;1.67;;
41629;SDS011;27322;49.488;8.480;2023-12-20T12:16:36;5.72;;;1.63;;
41629;SDS011;27322;49.488;8.480;2023-12-20T12:19:02;5.82;;;1.95;;
41629;SDS011;27322;49.488;8.480;2023-12-20T12:21:29;4.63;;;1.80;;
41629;SDS011;27322;49.488;8.480;2023-12-20T12:23:59;4.07;;;1.42;;
41629;SDS011;27322;49.488;8.480;2023-12-20T12:26:31;6.72;;;2.03;;
41629;SDS011;27322;49.488;8.480;2023-12-20T12:28:57;3.97;;;1.65;;
41629;SDS011;27322;49.488;8.480;2023-12-20T12:31:22;4.47;;;1.77;;
41629;SDS011;27322;49.488;8.480;2023-12-20T12:33:50;5.13;;;1.75;;
41629;SDS011;27322;49.488;8.480;2023-12-20T12:36:16;7.80;;;1.92;;
41629;SDS011;27322;49.488;8.480;2023-12-20T12:38:42;4.05;;;1.63;;
41629;SDS011;27322;49.488;8.480;2023-12-20T12:41:09;8.35;;;1.70;;
41629;SDS011;27322;49.488;8.480;2023-12-20T12:43:37;5.78;;;1.42;;
41629;SDS011;27322;49.488;8.480;2023-12-20T12:46:03;4.90;;;1.90;;
41629;SDS011;27322;49.488;8.480;2023-12-20T12:48:28;7.05;;;1.88;;
41629;SDS011;27322;49.488;8.480;2023-12-20T12:50:54;6.70;;;1.55;;
41629;SDS011;27322;49.488;8.480;2023-12-20T12:53:24;6.03;;;1.80;;
41629;SDS011;27322;49.488;8.480;2023-12-20T12:55:50;6.05;;;1.40;;
41629;SDS011;27322;49.488;8.480;2023-12-20T12:58:16;8.05;;;2.08;;
41629;SDS011;27322;49.488;8.480;2023-12-20T13:00:42;6.13;;;1.58;;
41629;SDS011;27322;49.488;8.480;2023-12-20T13:03:07;9.98;;;1.88;;
41629;SDS011;27322;49.488;8.480;2023-12-20T13:05:33;6.43;;;1.45;;
41629;SDS011;27322;49.488;8.480;2023-12-20T13:07:59;7.63;;;1.50;;
41629;SDS011;27322;49.488;8.480;2023-12-20T13:10:24;5.13;;;1.48;;
41629;SDS011;27322;49.488;8.480;2023-12-20T13:12:50;3.75;;;1.30;;
41629;SDS011;27322;49.488;8.480;2023-12-20T13:15:16;5.93;;;1.67;;
41629;SDS011;27322;49.488;8.480;2023-12-20T13:17:42;6.85;;;1.52;;
41629;SDS011;27322;49.488;8.480;2023-12-20T13:20:08;7.38;;;1.88;;
41629;SDS011;27322;49.488;8.480;2023-12-20T13:22:34;6.57;;;1.80;;
41629;SDS011;27322;49.488;8.480;2023-12-20T13:24:59;7.93;;;2.10;;
41629;SDS011;27322;49.488;8.480;2023-12-20T13:27:27;6.15;;;1.75;;
41629;SDS011;27322;49.488;8.480;2023-12-20T13:29:53;7.35;;;2.17;;
41629;SDS011;27322;49.488;8.480;2023-12-20T13:32:18;5.93;;;1.95;;
41629;SDS011;27322;49.488;8.480;2023-12-20T13:34:44;5.22;;;1.35;;
41629;SDS011;27322;49.488;8.480;2023-12-20T13:37:10;5.50;;;1.65;;
41629;SDS011;27322;49.488;8.480;2023-12-20T13:39:36;6.13;;;1.52;;
41629;SDS011;27322;49.488;8.480;2023-12-20T13:42:02;4.63;;;1.48;;
41629;SDS011;27322;49.488;8.480;2023-12-20T13:44:28;5.65;;;1.58;;
41629;SDS011;27322;49.488;8.480;2023-12-20T13:46:54;9.50;;;1.60;;
41629;SDS011;27322;49.488;8.480;2023-12-20T13:49:19;4.57;;;1.65;;
41629;SDS011;27322;49.488;8.480;2023-12-20T13:51:46;4.20;;;1.23;;
41629;SDS011;27322;49.488;8.480;2023-12-20T13:54:12;7.22;;;1.40;;
41629;SDS011;27322;49.488;8.480;2023-12-20T13:56:38;5.18;;;1.52;;
41629;SDS011;27322;49.488;8.480;2023-12-20T13:59:03;6.93;;;1.95;;
41629;SDS011;27322;49.488;8.480;2023-12-20T14:01:29;6.32;;;1.63;;
41629;SDS011;27322;49.488;8.480;2023-12-20T14:03:55;6.40;;;1.40;;
41629;SDS011;27322;49.488;8.480;2023-12-20T14:06:20;12.30;;;1.73;;
41629;SDS011;27322;49.488;8.480;2023-12-20T14:08:46;7.53;;;1.48;;
41629;SDS011;27322;49.488;8.480;2023-12-20T14:11:13;4.97;;;1.30;;
41629;SDS011;27322;49.488;8.480;2023-12-20T14:13:40;7.10;;;1.30;;
41629;SDS011;27322;49.488;8.480;2023-12-20T14:16:06;3.22;;;1.08;;
41629;SDS011;27322;49.488;8.480;2023-12-20T14:18:32;5.03;;;0.90;;
41629;SDS011;27322;49.488;8.480;2023-12-20T14:20:57;5.05;;;1.23;;
41629;SDS011;27322;49.488;8.480;2023-12-20T14:23:23;5.80;;;1.30;;
41629;SDS011;27322;49.488;8.480;2023-12-20T14:25:48;7.50;;;1.50;;
41629;SDS011;27322;49.488;8.480;2023-12-20T14:28:14;8.38;;;1.30;;
41629;SDS011;27322;49.488;8.480;2023-12-20T14:30:40;4.60;;;1.52;;
41629;SDS011;27322;49.488;8.480;2023-12-20T14:33:06;6.63;;;1.52;;
41629;SDS011;27322;49.488;8.480;2023-12-20T14:35:31;4.10;;;1.30;;
41629;SDS011;27322;49.488;8.480;2023-12-20T14:37:57;6.15;;;1.30;;
41629;SDS011;27322;49.488;8.480;2023-12-20T14:40:26;3.90;;;1.23;;
41629;SDS011;27322;49.488;8.480;2023-12-20T14:42:51;5.15;;;1.60;;
41629;SDS011;27322;49.488;8.480;2023-12-20T14:45:17;3.38;;;1.27;;
41629;SDS011;27322;49.488;8.480;2023-12-20T14:47:43;5.88;;;1.70;;
41629;SDS011;27322;49.488;8.480;2023-12-20T14:50:09;4.90;;;1.30;;
41629;SDS011;27322;49.488;8.480;2023-12-20T14:52:37;3.47;;;1.30;;
41629;SDS011;27322;49.488;8.480;2023-12-20T14:55:02;7.22;;;1.20;;
41629;SDS011;27322;49.488;8.480;2023-12-20T14:57:29;3.83;;;1.20;;
41629;SDS011;27322;49.488;8.480;2023-12-20T14:59:55;3.35;;;0.80;;
41629;SDS011;27322;49.488;8.480;2023-12-20T15:02:21;5.20;;;1.20;;
41629;SDS011;27322;49.488;8.480;2023-12-20T15:04:47;3.90;;;1.42;;
41629;SDS011;27322;49.488;8.480;2023-12-20T15:07:12;5.22;;;1.20;;
41629;SDS011;27322;49.488;8.480;2023-12-20T15:09:44;5.90;;;1.08;;
41629;SDS011;27322;49.488;8.480;2023-12-20T15:12:12;3.30;;;1.20;;
41629;SDS011;27322;49.488;8.480;2023-12-20T15:14:38;6.07;;;1.45;;
41629;SDS011;27322;49.488;8.480;2023-12-20T15:17:04;4.72;;;1.15;;
41629;SDS011;27322;49.488;8.480;2023-12-20T15:19:31;6.72;;;1.45;;
41629;SDS011;27322;49.488;8.480;2023-12-20T15:21:56;4.30;;;1.40;;
41629;SDS011;27322;49.488;8.480;2023-12-20T15:24:24;6.53;;;1.63;;
41629;SDS011;27322;49.488;8.480;2023-12-20T15:27:03;5.95;;;1.35;;
41629;SDS011;27322;49.488;8.480;2023-12-20T15:29:32;4.65;;;1.50;;
41629;SDS011;27322;49.488;8.480;2023-12-20T15:32:00;4.85;;;1.55;;
41629;SDS011;27322;49.488;8.480;2023-12-20T15:34:29;6.30;;;1.40;;
41629;SDS011;27322;49.488;8.480;2023-12-20T15:36:58;4.95;;;1.20;;
41629;SDS011;27322;49.488;8.480;2023-12-20T15:39:28;5.25;;;1.20;;
41629;SDS011;27322;49.488;8.480;2023-12-20T15:41:57;7.28;;;1.20;;
41629;SDS011;27322;49.488;8.480;2023-12-20T15:44:25;3.13;;;1.10;;
41629;SDS011;27322;49.488;8.480;2023-12-20T15:46:56;4.30;;;1.23;;
41629;SDS011;27322;49.488;8.480;2023-12-20T15:49:26;4.05;;;1.30;;
41629;SDS011;27322;49.488;8.480;2023-12-20T15:51:54;6.97;;;1.10;;
41629;SDS011;27322;49.488;8.480;2023-12-20T15:54:23;4.75;;;1.45;;
41629;SDS011;27322;49.488;8.480;2023-12-20T15:56:58;5.82;;;1.67;;
41629;SDS011;27322;49.488;8.480;2023-12-20T15:59:32;3.83;;;1.10;;
41629;SDS011;27322;49.488;8.480;2023-12-20T16:02:10;5.00;;;1.50;;
41629;SDS011;27322;49.488;8.480;2023-12-20T16:04:40;5.07;;;1.40;;
41629;SDS011;27322;49.488;8.480;2023-12-20T16:07:08;5.07;;;1.48;;
41629;SDS011;27322;49.488;8.480;2023-12-20T16:09:40;4.00;;;1.45;;
41629;SDS011;27322;49.488;8.480;2023-12-20T16:12:20;5.90;;;1.50;;
41629;SDS011;27322;49.488;8.480;2023-12-20T16:14:48;4.60;;;1.27;;
41629;SDS011;27322;49.488;8.480;2023-12-20T16:17:14;5.65;;;1.55;;
41629;SDS011;27322;49.488;8.480;2023-12-20T16:19:41;4.55;;;1.27;;
41629;SDS011;27322;49.488;8.480;2023-12-20T16:22:06;8.90;;;1.65;;
41629;SDS011;27322;49.488;8.480;2023-12-20T16:24:32;4.68;;;1.58;;
41629;SDS011;27322;49.488;8.480;2023-12-20T16:27:00;8.25;;;1.70;;
41629;SDS011;27322;49.488;8.480;2023-12-20T16:29:26;5.93;;;1.40;;
41629;SDS011;27322;49.488;8.480;2023-12-20T16:31:51;5.10;;;1.65;;
41629;SDS011;27322;49.488;8.480;2023-12-20T16:34:17;11.35;;;1.30;;
41629;SDS011;27322;49.488;8.480;2023-12-20T16:36:52;3.03;;;1.35;;
41629;SDS011;27322;49.488;8.480;2023-12-20T16:39:19;3.92;;;1.42;;
41629;SDS011;27322;49.488;8.480;2023-12-20T16:41:46;6.30;;;1.48;;
41629;SDS011;27322;49.488;8.480;2023-12-20T16:44:12;5.05;;;1.58;;
41629;SDS011;27322;49.488;8.480;2023-12-20T16:46:37;5.35;;;1.60;;
41629;SDS011;27322;49.488;8.480;2023-12-20T16:49:03;6.63;;;1.50;;